sensor_id;sensor_type;location;lat;lon;timestamp;P1;durP1;ratioP1;P2;durP2;ratioP2
20090;SDS011;10205;49.678;6.560;2023-12-07T00:00:03;8.00;;;7.20;;
20090;SDS011;10205;49.678;6.560;2023-12-07T00:02:31;9.13;;;6.73;;
20090;SDS011;10205;49.678;6.560;2023-12-07T00:05:00;8.40;;;7.07;;
20090;SDS011;10205;49.678;6.560;2023-12-07T00:07:27;8.73;;;7.40;;
20090;SDS011;10205;49.678;6.560;2023-12-07T00:09:55;8.33;;;7.50;;
20090;SDS011;10205;49.678;6.560;2023-12-07T00:12:23;7.33;;;6.20;;
20090;SDS011;10205;49.678;6.560;2023-12-07T00:14:51;10.73;;;6.97;;
20090;SDS011;10205;49.678;6.560;2023-12-07T00:17:20;10.07;;;6.40;;
20090;SDS011;10205;49.678;6.560;2023-12-07T00:19:49;9.63;;;6.40;;
20090;SDS011;10205;49.678;6.560;2023-12-07T00:22:20;9.40;;;6.20;;
20090;SDS011;10205;49.678;6.560;2023-12-07T00:24:49;7.97;;;5.93;;
20090;SDS011;10205;49.678;6.560;2023-12-07T00:27:17;7.47;;;6.23;;
20090;SDS011;10205;49.678;6.560;2023-12-07T00:29:44;9.77;;;6.50;;
20090;SDS011;10205;49.678;6.560;2023-12-07T00:32:12;8.07;;;6.27;;
20090;SDS011;10205;49.678;6.560;2023-12-07T00:34:40;8.50;;;7.10;;
20090;SDS011;10205;49.678;6.560;2023-12-07T00:37:07;9.03;;;7.47;;
20090;SDS011;10205;49.678;6.560;2023-12-07T00:39:36;7.10;;;6.40;;
20090;SDS011;10205;49.678;6.560;2023-12-07T00:42:03;9.50;;;7.47;;
20090;SDS011;10205;49.678;6.560;2023-12-07T00:44:31;7.93;;;6.80;;
20090;SDS011;10205;49.678;6.560;2023-12-07T00:46:58;7.80;;;6.80;;
20090;SDS011;10205;49.678;6.560;2023-12-07T00:49:25;8.03;;;6.70;;
20090;SDS011;10205;49.678;6.560;2023-12-07T00:51:53;6.83;;;5.80;;
20090;SDS011;10205;49.678;6.560;2023-12-07T00:54:21;9.40;;;6.00;;
20090;SDS011;10205;49.678;6.560;2023-12-07T00:56:50;8.20;;;6.10;;
20090;SDS011;10205;49.678;6.560;2023-12-07T00:59:17;7.60;;;6.43;;
20090;SDS011;10205;49.678;6.560;2023-12-07T01:01:47;7.10;;;5.83;;
20090;SDS011;10205;49.678;6.560;2023-12-07T01:04:14;7.40;;;6.10;;
20090;SDS011;10205;49.678;6.560;2023-12-07T01:06:44;8.10;;;6.70;;
20090;SDS011;10205;49.678;6.560;2023-12-07T01:09:11;8.07;;;6.03;;
20090;SDS011;10205;49.678;6.560;2023-12-07T01:11:40;7.53;;;5.40;;
20090;SDS011;10205;49.678;6.560;2023-12-07T01:14:09;7.97;;;5.93;;
20090;SDS011;10205;49.678;6.560;2023-12-07T01:16:39;7.87;;;6.17;;
20090;SDS011;10205;49.678;6.560;2023-12-07T01:19:07;8.00;;;6.20;;
20090;SDS011;10205;49.678;6.560;2023-12-07T01:21:34;6.33;;;5.20;;
20090;SDS011;10205;49.678;6.560;2023-12-07T01:24:01;8.00;;;5.57;;
20090;SDS011;10205;49.678;6.560;2023-12-07T01:26:28;7.33;;;5.90;;
20090;SDS011;10205;49.678;6.560;2023-12-07T01:28:57;7.93;;;5.67;;
20090;SDS011;10205;49.678;6.560;2023-12-07T01:31:27;6.03;;;5.43;;
20090;SDS011;10205;49.678;6.560;2023-12-07T01:33:55;6.73;;;5.63;;
20090;SDS011;10205;49.678;6.560;2023-12-07T01:36:22;8.37;;;5.23;;
20090;SDS011;10205;49.678;6.560;2023-12-07T01:38:50;8.57;;;5.60;;
20090;SDS011;10205;49.678;6.560;2023-12-07T01:41:18;5.13;;;4.63;;
20090;SDS011;10205;49.678;6.560;2023-12-07T01:43:46;6.83;;;4.83;;
20090;SDS011;10205;49.678;6.560;2023-12-07T01:46:14;7.50;;;4.87;;
20090;SDS011;10205;49.678;6.560;2023-12-07T01:48:46;6.40;;;5.70;;
20090;SDS011;10205;49.678;6.560;2023-12-07T01:51:14;8.53;;;5.57;;
20090;SDS011;10205;49.678;6.560;2023-12-07T01:53:43;7.17;;;5.23;;
20090;SDS011;10205;49.678;6.560;2023-12-07T01:56:11;8.13;;;6.13;;
20090;SDS011;10205;49.678;6.560;2023-12-07T01:58:38;7.23;;;5.27;;
20090;SDS011;10205;49.678;6.560;2023-12-07T02:01:05;7.43;;;6.13;;
20090;SDS011;10205;49.678;6.560;2023-12-07T02:03:36;6.17;;;5.67;;
20090;SDS011;10205;49.678;6.560;2023-12-07T02:06:08;11.60;;;6.27;;
20090;SDS011;10205;49.678;6.560;2023-12-07T02:08:36;5.80;;;4.70;;
20090;SDS011;10205;49.678;6.560;2023-12-07T02:11:06;6.73;;;5.70;;
20090;SDS011;10205;49.678;6.560;2023-12-07T02:13:34;6.50;;;5.83;;
20090;SDS011;10205;49.678;6.560;2023-12-07T02:16:04;8.97;;;5.90;;
20090;SDS011;10205;49.678;6.560;2023-12-07T02:18:40;6.20;;;5.60;;
20090;SDS011;10205;49.678;6.560;2023-12-07T02:21:21;7.13;;;5.00;;
20090;SDS011;10205;49.678;6.560;2023-12-07T02:23:53;8.37;;;5.73;;
20090;SDS011;10205;49.678;6.560;2023-12-07T02:28:56;7.20;;;6.27;;
20090;SDS011;10205;49.678;6.560;2023-12-07T02:31:25;7.63;;;5.73;;
20090;SDS011;10205;49.678;6.560;2023-12-07T02:33:52;6.33;;;5.50;;
20090;SDS011;10205;49.678;6.560;2023-12-07T02:36:20;6.87;;;6.17;;
20090;SDS011;10205;49.678;6.560;2023-12-07T02:38:53;8.10;;;6.23;;
20090;SDS011;10205;49.678;6.560;2023-12-07T02:41:27;6.63;;;5.33;;
20090;SDS011;10205;49.678;6.560;2023-12-07T02:43:58;7.67;;;6.50;;
20090;SDS011;10205;49.678;6.560;2023-12-07T02:46:26;6.43;;;5.33;;
20090;SDS011;10205;49.678;6.560;2023-12-07T02:48:56;6.93;;;6.00;;
20090;SDS011;10205;49.678;6.560;2023-12-07T02:51:26;7.00;;;5.90;;
20090;SDS011;10205;49.678;6.560;2023-12-07T02:53:53;7.07;;;5.37;;
20090;SDS011;10205;49.678;6.560;2023-12-07T02:56:21;6.93;;;5.63;;
20090;SDS011;10205;49.678;6.560;2023-12-07T02:58:49;7.13;;;6.10;;
20090;SDS011;10205;49.678;6.560;2023-12-07T03:01:16;7.13;;;6.43;;
20090;SDS011;10205;49.678;6.560;2023-12-07T03:03:45;7.20;;;6.50;;
20090;SDS011;10205;49.678;6.560;2023-12-07T03:06:12;6.33;;;5.37;;
20090;SDS011;10205;49.678;6.560;2023-12-07T03:08:42;8.43;;;6.07;;
20090;SDS011;10205;49.678;6.560;2023-12-07T03:11:09;6.37;;;5.37;;
20090;SDS011;10205;49.678;6.560;2023-12-07T03:13:37;6.23;;;5.30;;
20090;SDS011;10205;49.678;6.560;2023-12-07T03:16:08;6.00;;;5.33;;
20090;SDS011;10205;49.678;6.560;2023-12-07T03:18:37;6.47;;;5.30;;
20090;SDS011;10205;49.678;6.560;2023-12-07T03:21:06;5.33;;;4.83;;
20090;SDS011;10205;49.678;6.560;2023-12-07T03:23:33;5.07;;;4.57;;
20090;SDS011;10205;49.678;6.560;2023-12-07T03:26:00;7.03;;;5.20;;
20090;SDS011;10205;49.678;6.560;2023-12-07T03:28:27;6.87;;;6.10;;
20090;SDS011;10205;49.678;6.560;2023-12-07T03:30:56;6.63;;;6.03;;
20090;SDS011;10205;49.678;6.560;2023-12-07T03:33:25;6.87;;;5.50;;
20090;SDS011;10205;49.678;6.560;2023-12-07T03:35:57;6.70;;;6.03;;
20090;SDS011;10205;49.678;6.560;2023-12-07T03:38:24;7.23;;;5.80;;
20090;SDS011;10205;49.678;6.560;2023-12-07T03:40:52;6.43;;;5.83;;
20090;SDS011;10205;49.678;6.560;2023-12-07T03:43:21;7.00;;;6.27;;
20090;SDS011;10205;49.678;6.560;2023-12-07T03:45:48;7.53;;;6.20;;
20090;SDS011;10205;49.678;6.560;2023-12-07T03:48:17;7.47;;;6.60;;
20090;SDS011;10205;49.678;6.560;2023-12-07T03:50:46;6.83;;;6.13;;
20090;SDS011;10205;49.678;6.560;2023-12-07T03:53:13;6.97;;;5.47;;
20090;SDS011;10205;49.678;6.560;2023-12-07T03:55:41;7.17;;;6.50;;
20090;SDS011;10205;49.678;6.560;2023-12-07T03:58:08;6.37;;;5.03;;
20090;SDS011;10205;49.678;6.560;2023-12-07T04:00:35;7.93;;;6.27;;
20090;SDS011;10205;49.678;6.560;2023-12-07T04:03:04;6.73;;;5.90;;
20090;SDS011;10205;49.678;6.560;2023-12-07T04:05:32;7.03;;;6.33;;
20090;SDS011;10205;49.678;6.560;2023-12-07T04:08:02;9.47;;;6.93;;
20090;SDS011;10205;49.678;6.560;2023-12-07T04:10:30;7.53;;;6.43;;
20090;SDS011;10205;49.678;6.560;2023-12-07T04:12:57;7.40;;;5.63;;
20090;SDS011;10205;49.678;6.560;2023-12-07T04:15:25;6.17;;;5.57;;
20090;SDS011;10205;49.678;6.560;2023-12-07T04:17:53;8.50;;;5.83;;
20090;SDS011;10205;49.678;6.560;2023-12-07T04:20:21;7.23;;;5.20;;
20090;SDS011;10205;49.678;6.560;2023-12-07T04:22:48;7.23;;;6.53;;
20090;SDS011;10205;49.678;6.560;2023-12-07T04:25:17;8.23;;;6.27;;
20090;SDS011;10205;49.678;6.560;2023-12-07T04:27:45;7.87;;;5.83;;
20090;SDS011;10205;49.678;6.560;2023-12-07T04:30:12;9.47;;;7.13;;
20090;SDS011;10205;49.678;6.560;2023-12-07T04:32:41;8.83;;;6.30;;
20090;SDS011;10205;49.678;6.560;2023-12-07T04:35:08;7.27;;;5.70;;
20090;SDS011;10205;49.678;6.560;2023-12-07T04:37:36;8.57;;;6.30;;
20090;SDS011;10205;49.678;6.560;2023-12-07T04:40:04;6.43;;;5.83;;
20090;SDS011;10205;49.678;6.560;2023-12-07T04:42:36;8.40;;;6.90;;
20090;SDS011;10205;49.678;6.560;2023-12-07T04:45:04;7.87;;;6.60;;
20090;SDS011;10205;49.678;6.560;2023-12-07T04:47:32;7.47;;;6.70;;
20090;SDS011;10205;49.678;6.560;2023-12-07T04:50:02;7.60;;;6.80;;
20090;SDS011;10205;49.678;6.560;2023-12-07T04:52:30;7.30;;;6.60;;
20090;SDS011;10205;49.678;6.560;2023-12-07T04:54:58;8.03;;;6.70;;
20090;SDS011;10205;49.678;6.560;2023-12-07T04:57:26;7.67;;;6.43;;
20090;SDS011;10205;49.678;6.560;2023-12-07T04:59:55;7.97;;;7.13;;
20090;SDS011;10205;49.678;6.560;2023-12-07T05:02:23;7.87;;;7.07;;
20090;SDS011;10205;49.678;6.560;2023-12-07T05:04:52;7.97;;;7.17;;
20090;SDS011;10205;49.678;6.560;2023-12-07T05:07:20;8.30;;;7.50;;
20090;SDS011;10205;49.678;6.560;2023-12-07T05:09:48;7.50;;;6.80;;
20090;SDS011;10205;49.678;6.560;2023-12-07T05:12:16;7.53;;;6.60;;
20090;SDS011;10205;49.678;6.560;2023-12-07T05:14:45;8.83;;;6.40;;
20090;SDS011;10205;49.678;6.560;2023-12-07T05:17:14;7.90;;;6.83;;
20090;SDS011;10205;49.678;6.560;2023-12-07T05:19:41;7.87;;;6.03;;
20090;SDS011;10205;49.678;6.560;2023-12-07T05:22:10;7.07;;;6.03;;
20090;SDS011;10205;49.678;6.560;2023-12-07T05:24:37;7.37;;;6.47;;
20090;SDS011;10205;49.678;6.560;2023-12-07T05:27:05;7.50;;;5.70;;
20090;SDS011;10205;49.678;6.560;2023-12-07T05:29:32;7.33;;;5.77;;
20090;SDS011;10205;49.678;6.560;2023-12-07T05:32:01;7.40;;;6.70;;
20090;SDS011;10205;49.678;6.560;2023-12-07T05:34:30;7.73;;;7.03;;
20090;SDS011;10205;49.678;6.560;2023-12-07T05:36:58;7.87;;;6.90;;
20090;SDS011;10205;49.678;6.560;2023-12-07T05:39:25;7.13;;;6.43;;
20090;SDS011;10205;49.678;6.560;2023-12-07T05:41:52;7.30;;;6.53;;
20090;SDS011;10205;49.678;6.560;2023-12-07T05:44:19;7.83;;;7.03;;
20090;SDS011;10205;49.678;6.560;2023-12-07T05:46:48;8.37;;;6.10;;
20090;SDS011;10205;49.678;6.560;2023-12-07T05:49:15;7.00;;;6.30;;
20090;SDS011;10205;49.678;6.560;2023-12-07T05:51:44;7.30;;;6.60;;
20090;SDS011;10205;49.678;6.560;2023-12-07T05:54:11;7.13;;;6.43;;
20090;SDS011;10205;49.678;6.560;2023-12-07T05:56:38;7.30;;;6.60;;
20090;SDS011;10205;49.678;6.560;2023-12-07T05:59:05;7.60;;;6.60;;
20090;SDS011;10205;49.678;6.560;2023-12-07T06:01:32;5.87;;;5.27;;
20090;SDS011;10205;49.678;6.560;2023-12-07T06:04:00;7.47;;;5.67;;
20090;SDS011;10205;49.678;6.560;2023-12-07T06:06:27;7.77;;;6.97;;
20090;SDS011;10205;49.678;6.560;2023-12-07T06:08:56;7.03;;;5.30;;
20090;SDS011;10205;49.678;6.560;2023-12-07T06:11:23;6.17;;;5.20;;
20090;SDS011;10205;49.678;6.560;2023-12-07T06:13:50;6.63;;;6.03;;
20090;SDS011;10205;49.678;6.560;2023-12-07T06:16:21;6.53;;;5.83;;
20090;SDS011;10205;49.678;6.560;2023-12-07T06:18:48;7.67;;;5.10;;
20090;SDS011;10205;49.678;6.560;2023-12-07T06:21:15;5.67;;;5.17;;
20090;SDS011;10205;49.678;6.560;2023-12-07T06:23:42;6.60;;;5.90;;
20090;SDS011;10205;49.678;6.560;2023-12-07T06:26:13;7.40;;;5.13;;
20090;SDS011;10205;49.678;6.560;2023-12-07T06:28:41;6.63;;;5.93;;
20090;SDS011;10205;49.678;6.560;2023-12-07T06:31:09;7.13;;;5.90;;
20090;SDS011;10205;49.678;6.560;2023-12-07T06:33:40;6.50;;;5.90;;
20090;SDS011;10205;49.678;6.560;2023-12-07T06:36:09;6.60;;;5.27;;
20090;SDS011;10205;49.678;6.560;2023-12-07T06:38:36;6.60;;;5.90;;
20090;SDS011;10205;49.678;6.560;2023-12-07T06:41:04;6.13;;;5.53;;
20090;SDS011;10205;49.678;6.560;2023-12-07T06:43:33;6.50;;;5.17;;
20090;SDS011;10205;49.678;6.560;2023-12-07T06:46:00;7.60;;;5.00;;
20090;SDS011;10205;49.678;6.560;2023-12-07T06:48:27;6.13;;;5.53;;
20090;SDS011;10205;49.678;6.560;2023-12-07T06:50:54;6.40;;;5.80;;
20090;SDS011;10205;49.678;6.560;2023-12-07T06:53:21;6.40;;;5.80;;
20090;SDS011;10205;49.678;6.560;2023-12-07T06:55:48;6.53;;;5.90;;
20090;SDS011;10205;49.678;6.560;2023-12-07T06:58:15;6.43;;;5.63;;
20090;SDS011;10205;49.678;6.560;2023-12-07T07:00:45;6.80;;;6.10;;
20090;SDS011;10205;49.678;6.560;2023-12-07T07:03:12;6.63;;;5.33;;
20090;SDS011;10205;49.678;6.560;2023-12-07T07:05:39;5.83;;;4.93;;
20090;SDS011;10205;49.678;6.560;2023-12-07T07:08:07;6.37;;;5.67;;
20090;SDS011;10205;49.678;6.560;2023-12-07T07:10:34;7.27;;;6.57;;
20090;SDS011;10205;49.678;6.560;2023-12-07T07:13:01;6.17;;;5.60;;
20090;SDS011;10205;49.678;6.560;2023-12-07T07:15:31;6.83;;;6.23;;
20090;SDS011;10205;49.678;6.560;2023-12-07T07:18:02;6.73;;;6.07;;
20090;SDS011;10205;49.678;6.560;2023-12-07T07:20:30;6.27;;;5.67;;
20090;SDS011;10205;49.678;6.560;2023-12-07T07:22:57;7.00;;;6.30;;
20090;SDS011;10205;49.678;6.560;2023-12-07T07:25:24;6.83;;;6.13;;
20090;SDS011;10205;49.678;6.560;2023-12-07T07:27:52;7.03;;;6.03;;
20090;SDS011;10205;49.678;6.560;2023-12-07T07:30:19;6.67;;;5.97;;
20090;SDS011;10205;49.678;6.560;2023-12-07T07:32:47;6.87;;;6.07;;
20090;SDS011;10205;49.678;6.560;2023-12-07T07:35:16;6.77;;;6.00;;
20090;SDS011;10205;49.678;6.560;2023-12-07T07:37:44;6.87;;;6.27;;
20090;SDS011;10205;49.678;6.560;2023-12-07T07:40:11;6.50;;;5.90;;
20090;SDS011;10205;49.678;6.560;2023-12-07T07:42:39;6.10;;;5.60;;
20090;SDS011;10205;49.678;6.560;2023-12-07T07:45:07;6.80;;;6.20;;
20090;SDS011;10205;49.678;6.560;2023-12-07T07:47:36;6.43;;;5.83;;
20090;SDS011;10205;49.678;6.560;2023-12-07T07:50:04;6.80;;;6.10;;
20090;SDS011;10205;49.678;6.560;2023-12-07T07:52:34;6.20;;;5.33;;
20090;SDS011;10205;49.678;6.560;2023-12-07T07:55:02;5.57;;;4.87;;
20090;SDS011;10205;49.678;6.560;2023-12-07T07:57:30;7.23;;;6.07;;
20090;SDS011;10205;49.678;6.560;2023-12-07T07:59:58;6.87;;;5.40;;
20090;SDS011;10205;49.678;6.560;2023-12-07T08:02:25;6.40;;;5.50;;
20090;SDS011;10205;49.678;6.560;2023-12-07T08:04:52;6.43;;;5.23;;
20090;SDS011;10205;49.678;6.560;2023-12-07T08:07:19;6.47;;;5.57;;
20090;SDS011;10205;49.678;6.560;2023-12-07T08:09:48;7.03;;;5.53;;
20090;SDS011;10205;49.678;6.560;2023-12-07T08:12:15;6.67;;;5.73;;
20090;SDS011;10205;49.678;6.560;2023-12-07T08:14:42;7.33;;;5.23;;
20090;SDS011;10205;49.678;6.560;2023-12-07T08:17:11;7.43;;;6.13;;
20090;SDS011;10205;49.678;6.560;2023-12-07T08:19:38;8.30;;;5.63;;
20090;SDS011;10205;49.678;6.560;2023-12-07T08:22:07;6.50;;;5.23;;
20090;SDS011;10205;49.678;6.560;2023-12-07T08:24:35;5.60;;;4.90;;
20090;SDS011;10205;49.678;6.560;2023-12-07T08:27:06;8.13;;;5.83;;
20090;SDS011;10205;49.678;6.560;2023-12-07T08:29:33;5.67;;;5.13;;
20090;SDS011;10205;49.678;6.560;2023-12-07T08:32:00;6.70;;;5.53;;
20090;SDS011;10205;49.678;6.560;2023-12-07T08:34:27;8.67;;;5.60;;
20090;SDS011;10205;49.678;6.560;2023-12-07T08:36:54;6.30;;;5.23;;
20090;SDS011;10205;49.678;6.560;2023-12-07T08:39:22;7.40;;;6.00;;
20090;SDS011;10205;49.678;6.560;2023-12-07T08:41:50;7.97;;;6.30;;
20090;SDS011;10205;49.678;6.560;2023-12-07T08:44:19;6.97;;;5.50;;
20090;SDS011;10205;49.678;6.560;2023-12-07T08:46:46;6.83;;;5.47;;
20090;SDS011;10205;49.678;6.560;2023-12-07T08:49:14;7.77;;;5.60;;
20090;SDS011;10205;49.678;6.560;2023-12-07T08:51:41;7.47;;;6.20;;
20090;SDS011;10205;49.678;6.560;2023-12-07T08:54:08;7.43;;;6.37;;
20090;SDS011;10205;49.678;6.560;2023-12-07T08:56:37;5.70;;;5.10;;
20090;SDS011;10205;49.678;6.560;2023-12-07T08:59:04;6.90;;;5.27;;
20090;SDS011;10205;49.678;6.560;2023-12-07T09:01:32;9.07;;;6.17;;
20090;SDS011;10205;49.678;6.560;2023-12-07T09:04:00;7.50;;;5.93;;
20090;SDS011;10205;49.678;6.560;2023-12-07T09:06:28;7.03;;;6.33;;
20090;SDS011;10205;49.678;6.560;2023-12-07T09:08:55;8.03;;;7.23;;
20090;SDS011;10205;49.678;6.560;2023-12-07T09:11:22;8.27;;;6.53;;
20090;SDS011;10205;49.678;6.560;2023-12-07T09:13:50;7.43;;;6.03;;
20090;SDS011;10205;49.678;6.560;2023-12-07T09:16:18;7.63;;;5.63;;
20090;SDS011;10205;49.678;6.560;2023-12-07T09:18:47;9.13;;;6.53;;
20090;SDS011;10205;49.678;6.560;2023-12-07T09:21:15;7.97;;;6.27;;
20090;SDS011;10205;49.678;6.560;2023-12-07T09:23:42;6.93;;;5.80;;
20090;SDS011;10205;49.678;6.560;2023-12-07T09:26:09;8.00;;;6.13;;
20090;SDS011;10205;49.678;6.560;2023-12-07T09:28:37;7.80;;;5.87;;
20090;SDS011;10205;49.678;6.560;2023-12-07T09:31:05;8.40;;;5.90;;
20090;SDS011;10205;49.678;6.560;2023-12-07T09:33:32;6.63;;;5.93;;
20090;SDS011;10205;49.678;6.560;2023-12-07T09:36:01;9.30;;;6.30;;
20090;SDS011;10205;49.678;6.560;2023-12-07T09:38:30;7.47;;;5.97;;
20090;SDS011;10205;49.678;6.560;2023-12-07T09:40:57;7.73;;;5.90;;
20090;SDS011;10205;49.678;6.560;2023-12-07T09:43:25;8.90;;;8.00;;
20090;SDS011;10205;49.678;6.560;2023-12-07T09:45:53;8.30;;;7.40;;
20090;SDS011;10205;49.678;6.560;2023-12-07T09:48:21;8.73;;;7.73;;
20090;SDS011;10205;49.678;6.560;2023-12-07T09:50:49;9.10;;;7.90;;
20090;SDS011;10205;49.678;6.560;2023-12-07T09:53:20;8.27;;;7.43;;
20090;SDS011;10205;49.678;6.560;2023-12-07T09:55:47;8.37;;;6.87;;
20090;SDS011;10205;49.678;6.560;2023-12-07T09:58:14;8.20;;;7.27;;
20090;SDS011;10205;49.678;6.560;2023-12-07T10:00:42;9.23;;;7.80;;
20090;SDS011;10205;49.678;6.560;2023-12-07T10:03:09;8.40;;;7.60;;
20090;SDS011;10205;49.678;6.560;2023-12-07T10:05:53;9.03;;;7.63;;
20090;SDS011;10205;49.678;6.560;2023-12-07T10:08:27;8.67;;;7.67;;
20090;SDS011;10205;49.678;6.560;2023-12-07T10:11:02;8.50;;;7.70;;
20090;SDS011;10205;49.678;6.560;2023-12-07T10:13:32;8.53;;;7.63;;
20090;SDS011;10205;49.678;6.560;2023-12-07T10:16:10;10.47;;;8.27;;
20090;SDS011;10205;49.678;6.560;2023-12-07T10:18:40;8.53;;;7.63;;
20090;SDS011;10205;49.678;6.560;2023-12-07T10:21:08;7.33;;;6.37;;
20090;SDS011;10205;49.678;6.560;2023-12-07T10:23:37;8.80;;;7.90;;
20090;SDS011;10205;49.678;6.560;2023-12-07T10:26:08;9.37;;;8.20;;
20090;SDS011;10205;49.678;6.560;2023-12-07T10:28:37;10.27;;;7.67;;
20090;SDS011;10205;49.678;6.560;2023-12-07T10:31:08;10.00;;;6.47;;
20090;SDS011;10205;49.678;6.560;2023-12-07T10:33:36;8.37;;;6.70;;
20090;SDS011;10205;49.678;6.560;2023-12-07T10:36:03;7.97;;;6.07;;
20090;SDS011;10205;49.678;6.560;2023-12-07T10:38:31;8.07;;;6.13;;
20090;SDS011;10205;49.678;6.560;2023-12-07T10:41:03;8.60;;;7.10;;
20090;SDS011;10205;49.678;6.560;2023-12-07T10:43:33;8.57;;;6.17;;
20090;SDS011;10205;49.678;6.560;2023-12-07T10:46:04;7.67;;;6.73;;
20090;SDS011;10205;49.678;6.560;2023-12-07T10:48:35;11.73;;;6.60;;
20090;SDS011;10205;49.678;6.560;2023-12-07T10:51:06;8.67;;;6.70;;
20090;SDS011;10205;49.678;6.560;2023-12-07T10:53:37;7.37;;;6.30;;
20090;SDS011;10205;49.678;6.560;2023-12-07T10:56:10;7.97;;;6.00;;
20090;SDS011;10205;49.678;6.560;2023-12-07T10:58:42;8.43;;;6.43;;
20090;SDS011;10205;49.678;6.560;2023-12-07T11:01:11;8.40;;;6.47;;
20090;SDS011;10205;49.678;6.560;2023-12-07T11:03:40;8.03;;;6.93;;
20090;SDS011;10205;49.678;6.560;2023-12-07T11:06:10;7.67;;;6.97;;
20090;SDS011;10205;49.678;6.560;2023-12-07T11:08:38;10.37;;;6.27;;
20090;SDS011;10205;49.678;6.560;2023-12-07T11:11:12;8.10;;;6.60;;
20090;SDS011;10205;49.678;6.560;2023-12-07T11:13:52;7.83;;;6.17;;
20090;SDS011;10205;49.678;6.560;2023-12-07T11:16:30;8.17;;;6.50;;
20090;SDS011;10205;49.678;6.560;2023-12-07T11:18:58;8.57;;;6.93;;
20090;SDS011;10205;49.678;6.560;2023-12-07T11:21:26;9.90;;;7.40;;
20090;SDS011;10205;49.678;6.560;2023-12-07T11:23:53;8.00;;;7.20;;
20090;SDS011;10205;49.678;6.560;2023-12-07T11:26:23;8.93;;;7.20;;
20090;SDS011;10205;49.678;6.560;2023-12-07T11:28:51;7.83;;;6.37;;
20090;SDS011;10205;49.678;6.560;2023-12-07T11:31:21;8.67;;;6.83;;
20090;SDS011;10205;49.678;6.560;2023-12-07T11:33:49;6.90;;;6.23;;
20090;SDS011;10205;49.678;6.560;2023-12-07T11:36:16;8.00;;;6.07;;
20090;SDS011;10205;49.678;6.560;2023-12-07T11:41:55;7.37;;;6.57;;
20090;SDS011;10205;49.678;6.560;2023-12-07T11:44:37;7.50;;;6.80;;
20090;SDS011;10205;49.678;6.560;2023-12-07T11:47:05;9.67;;;6.83;;
20090;SDS011;10205;49.678;6.560;2023-12-07T11:49:35;7.47;;;6.73;;
20090;SDS011;10205;49.678;6.560;2023-12-07T11:54:40;7.73;;;6.93;;
20090;SDS011;10205;49.678;6.560;2023-12-07T11:57:13;7.47;;;6.77;;
20090;SDS011;10205;49.678;6.560;2023-12-07T11:59:41;9.53;;;7.20;;
20090;SDS011;10205;49.678;6.560;2023-12-07T12:02:10;7.90;;;7.10;;
20090;SDS011;10205;49.678;6.560;2023-12-07T12:04:37;7.57;;;6.77;;
20090;SDS011;10205;49.678;6.560;2023-12-07T12:07:04;9.80;;;6.37;;
20090;SDS011;10205;49.678;6.560;2023-12-07T12:09:31;7.60;;;5.93;;
20090;SDS011;10205;49.678;6.560;2023-12-07T12:11:59;6.20;;;5.60;;
20090;SDS011;10205;49.678;6.560;2023-12-07T12:14:28;6.83;;;6.23;;
20090;SDS011;10205;49.678;6.560;2023-12-07T12:16:56;9.03;;;5.67;;
20090;SDS011;10205;49.678;6.560;2023-12-07T12:19:23;7.63;;;6.80;;
20090;SDS011;10205;49.678;6.560;2023-12-07T12:21:50;8.77;;;7.00;;
20090;SDS011;10205;49.678;6.560;2023-12-07T12:24:17;8.87;;;7.10;;
20090;SDS011;10205;49.678;6.560;2023-12-07T12:26:45;7.17;;;6.07;;
20090;SDS011;10205;49.678;6.560;2023-12-07T12:29:13;7.90;;;5.70;;
20090;SDS011;10205;49.678;6.560;2023-12-07T12:31:43;6.27;;;5.53;;
20090;SDS011;10205;49.678;6.560;2023-12-07T12:34:10;7.33;;;6.53;;
20090;SDS011;10205;49.678;6.560;2023-12-07T12:36:38;7.93;;;5.73;;
20090;SDS011;10205;49.678;6.560;2023-12-07T12:39:05;7.93;;;5.63;;
20090;SDS011;10205;49.678;6.560;2023-12-07T12:41:33;7.87;;;6.33;;
20090;SDS011;10205;49.678;6.560;2023-12-07T12:44:00;7.33;;;5.93;;
20090;SDS011;10205;49.678;6.560;2023-12-07T12:46:28;7.50;;;4.70;;
20090;SDS011;10205;49.678;6.560;2023-12-07T12:48:58;6.70;;;6.10;;
20090;SDS011;10205;49.678;6.560;2023-12-07T12:51:28;8.27;;;6.20;;
20090;SDS011;10205;49.678;6.560;2023-12-07T12:53:58;8.03;;;6.70;;
20090;SDS011;10205;49.678;6.560;2023-12-07T12:56:26;7.03;;;6.33;;
20090;SDS011;10205;49.678;6.560;2023-12-07T12:58:54;6.37;;;5.73;;
20090;SDS011;10205;49.678;6.560;2023-12-07T13:01:22;7.03;;;5.50;;
20090;SDS011;10205;49.678;6.560;2023-12-07T13:03:49;6.97;;;5.97;;
20090;SDS011;10205;49.678;6.560;2023-12-07T13:06:18;7.03;;;5.80;;
20090;SDS011;10205;49.678;6.560;2023-12-07T13:08:47;5.80;;;5.20;;
20090;SDS011;10205;49.678;6.560;2023-12-07T13:11:14;7.83;;;5.47;;
20090;SDS011;10205;49.678;6.560;2023-12-07T13:13:43;6.47;;;5.10;;
20090;SDS011;10205;49.678;6.560;2023-12-07T13:16:12;7.03;;;5.03;;
20090;SDS011;10205;49.678;6.560;2023-12-07T13:18:40;7.97;;;5.00;;
20090;SDS011;10205;49.678;6.560;2023-12-07T13:21:09;5.97;;;4.80;;
20090;SDS011;10205;49.678;6.560;2023-12-07T13:23:38;6.37;;;5.73;;
20090;SDS011;10205;49.678;6.560;2023-12-07T13:26:05;5.73;;;5.00;;
20090;SDS011;10205;49.678;6.560;2023-12-07T13:28:32;6.53;;;5.20;;
20090;SDS011;10205;49.678;6.560;2023-12-07T13:31:00;5.97;;;4.93;;
20090;SDS011;10205;49.678;6.560;2023-12-07T13:33:27;7.13;;;5.43;;
20090;SDS011;10205;49.678;6.560;2023-12-07T13:35:55;6.67;;;4.67;;
20090;SDS011;10205;49.678;6.560;2023-12-07T13:38:22;6.33;;;5.73;;
20090;SDS011;10205;49.678;6.560;2023-12-07T13:40:51;7.13;;;5.73;;
20090;SDS011;10205;49.678;6.560;2023-12-07T13:43:18;6.17;;;5.57;;
20090;SDS011;10205;49.678;6.560;2023-12-07T13:45:54;5.60;;;5.00;;
20090;SDS011;10205;49.678;6.560;2023-12-07T13:48:22;5.70;;;4.70;;
20090;SDS011;10205;49.678;6.560;2023-12-07T13:50:49;6.13;;;5.03;;
20090;SDS011;10205;49.678;6.560;2023-12-07T13:53:16;5.80;;;4.43;;
20090;SDS011;10205;49.678;6.560;2023-12-07T13:55:44;4.90;;;4.20;;
20090;SDS011;10205;49.678;6.560;2023-12-07T13:58:14;5.43;;;4.60;;
20090;SDS011;10205;49.678;6.560;2023-12-07T14:00:41;6.07;;;5.40;;
20090;SDS011;10205;49.678;6.560;2023-12-07T14:03:10;6.00;;;5.40;;
20090;SDS011;10205;49.678;6.560;2023-12-07T14:05:37;5.90;;;5.30;;
20090;SDS011;10205;49.678;6.560;2023-12-07T14:08:05;5.37;;;4.67;;
20090;SDS011;10205;49.678;6.560;2023-12-07T14:10:34;7.60;;;5.27;;
20090;SDS011;10205;49.678;6.560;2023-12-07T14:13:00;7.93;;;5.47;;
20090;SDS011;10205;49.678;6.560;2023-12-07T14:15:30;6.60;;;5.90;;
20090;SDS011;10205;49.678;6.560;2023-12-07T14:18:00;7.33;;;6.03;;
20090;SDS011;10205;49.678;6.560;2023-12-07T14:20:28;6.37;;;4.67;;
20090;SDS011;10205;49.678;6.560;2023-12-07T14:22:56;7.20;;;5.43;;
20090;SDS011;10205;49.678;6.560;2023-12-07T14:25:29;7.70;;;5.73;;
20090;SDS011;10205;49.678;6.560;2023-12-07T14:27:56;9.67;;;5.90;;
20090;SDS011;10205;49.678;6.560;2023-12-07T14:30:24;7.53;;;6.37;;
20090;SDS011;10205;49.678;6.560;2023-12-07T14:32:53;14.60;;;10.37;;
20090;SDS011;10205;49.678;6.560;2023-12-07T14:35:20;10.63;;;7.33;;
20090;SDS011;10205;49.678;6.560;2023-12-07T14:37:48;8.40;;;6.30;;
20090;SDS011;10205;49.678;6.560;2023-12-07T14:40:16;12.17;;;7.23;;
20090;SDS011;10205;49.678;6.560;2023-12-07T14:42:44;10.43;;;7.20;;
20090;SDS011;10205;49.678;6.560;2023-12-07T14:45:11;10.27;;;8.47;;
20090;SDS011;10205;49.678;6.560;2023-12-07T14:47:39;8.80;;;6.63;;
20090;SDS011;10205;49.678;6.560;2023-12-07T14:50:09;10.67;;;8.10;;
20090;SDS011;10205;49.678;6.560;2023-12-07T14:52:36;11.43;;;8.10;;
20090;SDS011;10205;49.678;6.560;2023-12-07T14:55:04;12.67;;;8.97;;
20090;SDS011;10205;49.678;6.560;2023-12-07T14:57:33;12.13;;;8.80;;
20090;SDS011;10205;49.678;6.560;2023-12-07T15:00:01;10.03;;;7.73;;
20090;SDS011;10205;49.678;6.560;2023-12-07T15:02:30;13.43;;;9.03;;